createdAt,value
2022-10-23T00:01:41.493Z,101717.91
2022-10-23T00:04:13.274Z,101714.25
2022-10-23T00:06:40.684Z,101718.72
2022-10-23T00:09:08.999Z,101720.44
2022-10-23T00:11:36.775Z,101723.69
2022-10-23T00:14:08.098Z,101726.97
2022-10-23T00:16:38.141Z,101723.47
2022-10-23T00:19:06.939Z,101725.03
2022-10-23T00:21:57.422Z,101724.78
2022-10-23T00:24:25.397Z,101728.94
2022-10-23T00:26:54.480Z,101724.56
2022-10-23T00:29:21.298Z,101718.16
2022-10-23T00:31:59.752Z,101716.47
2022-10-23T00:34:27.521Z,101723.44
2022-10-23T00:36:54.178Z,101727.16
2022-10-23T00:39:21.126Z,101724.69
2022-10-23T00:41:47.816Z,101731.34
2022-10-23T00:44:17.635Z,101741.41
2022-10-23T00:46:46.104Z,101727.38
2022-10-23T00:49:16.444Z,101733.63
2022-10-23T00:51:53.932Z,101731.50
2022-10-23T00:54:24.802Z,101740.47
2022-10-23T00:56:56.049Z,101731.88
2022-10-23T00:59:23.256Z,101741.03
2022-10-23T01:01:50.235Z,101734.94
2022-10-23T01:04:17.253Z,101739.53
2022-10-23T01:07:08.616Z,101740.97
2022-10-23T01:09:45.781Z,101746.66
2022-10-23T01:12:31.995Z,101742.44
2022-10-23T01:15:47.739Z,101742.94
2022-10-23T01:18:20.702Z,101738.13
2022-10-23T01:20:55.594Z,101747.44
2022-10-23T01:23:40.904Z,101734.38
2022-10-23T01:26:43.813Z,101740.44
2022-10-23T01:29:19.852Z,101726.19
2022-10-23T01:32:03.798Z,101728.84
2022-10-23T01:34:56.524Z,101733.72
2022-10-23T01:37:56.084Z,101725.13
2022-10-23T01:40:32.279Z,101725.78
2022-10-23T01:43:06.474Z,101720.91
2022-10-23T01:45:50.562Z,101721.25
2022-10-23T01:48:24.936Z,101718.75
2022-10-23T01:50:56.373Z,101718.91
2022-10-23T01:53:26.253Z,101720.56
2022-10-23T01:55:57.168Z,101720.47
2022-10-23T01:58:29.798Z,101722.97
2022-10-23T02:01:07.820Z,101723.94
2022-10-23T02:03:37.732Z,101723.94
2022-10-23T02:06:09.345Z,101724.19
2022-10-23T02:08:36.212Z,101728.00
2022-10-23T02:11:13.220Z,101729.38
2022-10-23T02:13:48.103Z,101729.50
2022-10-23T02:16:23.219Z,101733.94
2022-10-23T02:19:34.583Z,101729.72
2022-10-23T02:22:07.210Z,101726.47
2022-10-23T02:24:47.540Z,101722.88
2022-10-23T02:27:30.041Z,101715.09
2022-10-23T02:30:04.759Z,101722.75
2022-10-23T02:32:31.546Z,101725.53
2022-10-23T02:34:58.695Z,101732.81
2022-10-23T02:37:25.691Z,101723.41
2022-10-23T02:39:58.340Z,101729.06
2022-10-23T02:42:44.434Z,101726.91
2022-10-23T02:46:05.318Z,101726.81
2022-10-23T02:48:55.459Z,101728.69
2022-10-23T02:51:52.493Z,101730.63
2022-10-23T02:54:47.432Z,101726.94
2022-10-23T02:57:28.184Z,101734.00
2022-10-23T03:00:07.389Z,101724.06
2022-10-23T03:02:45.979Z,101731.00
2022-10-23T03:05:26.891Z,101730.03
2022-10-23T03:07:54.050Z,101732.69
2022-10-23T03:10:23.188Z,101731.78
2022-10-23T03:12:50.658Z,101736.22
2022-10-23T03:15:23.744Z,101736.28
2022-10-23T03:18:03.842Z,101733.19
2022-10-23T03:20:36.587Z,101735.91
2022-10-23T03:23:03.743Z,101730.97
2022-10-23T03:25:36.403Z,101730.19
2022-10-23T03:28:06.471Z,101741.31
2022-10-23T03:30:33.879Z,101736.38
2022-10-23T03:33:02.385Z,101741.22
2022-10-23T03:35:29.114Z,101741.72
2022-10-23T03:38:04.081Z,101746.03
2022-10-23T03:40:31.127Z,101744.06
2022-10-23T03:42:58.743Z,101743.69
2022-10-23T03:45:29.757Z,101750.88
2022-10-23T03:47:58.285Z,101747.41
2022-10-23T03:50:28.134Z,101737.63
2022-10-23T03:52:56.567Z,101740.31
2022-10-23T03:55:23.645Z,101741.50
2022-10-23T03:57:50.435Z,101737.63
2022-10-23T04:00:37.455Z,101731.56
2022-10-23T04:03:07.590Z,101728.16
2022-10-23T04:05:36.190Z,101739.81
2022-10-23T04:08:16.328Z,101727.28
2022-10-23T04:10:53.054Z,101731.88
2022-10-23T04:13:23.651Z,101733.72
2022-10-23T04:15:57.886Z,101732.91
2022-10-23T04:18:24.571Z,101735.91
2022-10-23T04:20:51.551Z,101730.34
2022-10-23T04:23:19.764Z,101737.00
2022-10-23T04:25:49.578Z,101738.72
2022-10-23T04:28:17.540Z,101736.00
2022-10-23T04:30:46.633Z,101745.75
2022-10-23T04:33:13.260Z,101745.84
2022-10-23T04:35:41.349Z,101755.31
2022-10-23T04:38:08.003Z,101749.25
2022-10-23T04:40:34.813Z,101764.97
2022-10-23T04:43:01.660Z,101746.94
2022-10-23T04:45:28.391Z,101754.88
2022-10-23T04:47:56.228Z,101753.06
2022-10-23T04:50:23.322Z,101748.84
2022-10-23T04:52:54.332Z,101749.56
2022-10-23T04:55:21.179Z,101749.69
2022-10-23T04:57:51.100Z,101751.50
2022-10-23T05:00:18.624Z,101750.19
2022-10-23T05:02:45.835Z,101745.75
2022-10-23T05:05:12.686Z,101741.31
2022-10-23T05:07:40.806Z,101744.06
2022-10-23T05:10:08.152Z,101735.97
2022-10-23T05:12:34.805Z,101746.03
2022-10-23T05:15:45.299Z,101747.88
2022-10-23T05:18:18.073Z,101752.88
2022-10-23T05:20:47.636Z,101742.53
2022-10-23T05:23:19.560Z,101744.94
2022-10-23T05:25:48.254Z,101747.47
2022-10-23T05:28:20.753Z,101738.75
2022-10-23T05:30:49.663Z,101741.22
2022-10-23T05:33:57.077Z,101742.59
2022-10-23T05:36:27.640Z,101740.56
2022-10-23T05:38:54.652Z,101742.66
2022-10-23T05:41:21.398Z,101732.22
2022-10-23T05:43:48.307Z,101735.81
2022-10-23T05:46:15.159Z,101743.81
2022-10-23T05:48:42.029Z,101743.91
2022-10-23T05:51:11.883Z,101751.16
2022-10-23T05:53:41.724Z,101753.06
2022-10-23T05:56:09.688Z,101753.91
2022-10-23T05:58:36.713Z,101772.63
2022-10-23T06:01:09.109Z,101766.34
2022-10-23T06:03:36.969Z,101765.25
2022-10-23T06:06:04.260Z,101771.13
2022-10-23T06:08:32.431Z,101768.34
2022-10-23T06:11:02.037Z,101767.00
2022-10-23T06:13:28.681Z,101769.63
2022-10-23T06:15:55.356Z,101776.50
2022-10-23T06:18:22.276Z,101789.53
2022-10-23T06:20:49.380Z,101796.41
2022-10-23T06:23:16.078Z,101793.56
2022-10-23T06:25:42.859Z,101800.44
2022-10-23T06:28:20.550Z,101808.78
2022-10-23T06:30:47.652Z,101807.19
2022-10-23T06:33:14.318Z,101821.75
2022-10-23T06:35:41.059Z,101824.97
2022-10-23T06:38:09.220Z,101827.88
2022-10-23T06:40:36.370Z,101826.88
2022-10-23T06:43:06.143Z,101828.09
2022-10-23T06:45:34.088Z,101842.06
2022-10-23T06:48:01.252Z,101838.16
2022-10-23T06:50:31.140Z,101841.06
2022-10-23T06:52:58.044Z,101834.44
2022-10-23T06:55:24.892Z,101835.03
2022-10-23T06:57:51.691Z,101835.03
2022-10-23T07:00:18.386Z,101842.84
2022-10-23T07:02:50.948Z,101842.31
2022-10-23T07:05:19.571Z,101831.13
2022-10-23T07:07:46.692Z,101845.50
2022-10-23T07:12:40.286Z,101846.75
2022-10-23T07:15:07.881Z,101835.19
2022-10-23T07:17:34.523Z,101831.88
2022-10-23T07:20:04.637Z,101838.53
2022-10-23T07:22:36.502Z,101846.31
2022-10-23T07:25:06.589Z,101852.97
2022-10-23T07:27:44.631Z,101852.06
2022-10-23T07:30:13.463Z,101841.81
2022-10-23T07:32:40.994Z,101835.25
2022-10-23T07:37:51.461Z,101828.88
2022-10-23T07:40:29.751Z,101839.84
2022-10-23T07:43:08.660Z,101839.41
2022-10-23T07:45:38.449Z,101852.97
2022-10-23T07:48:09.127Z,101860.53
2022-10-23T07:50:38.224Z,101840.28
2022-10-23T07:53:05.117Z,101843.22
2022-10-23T07:55:32.139Z,101847.81
2022-10-23T07:58:01.907Z,101843.66
2022-10-23T08:00:33.484Z,101842.63
2022-10-23T08:03:03.968Z,101842.19
2022-10-23T08:05:30.841Z,101844.03
2022-10-23T08:07:59.718Z,101853.41
2022-10-23T08:10:31.860Z,101845.09
2022-10-23T08:13:08.977Z,101850.53
2022-10-23T08:15:35.855Z,101854.06
2022-10-23T08:18:05.815Z,101850.41
2022-10-23T08:20:34.390Z,101841.16
2022-10-23T08:23:01.200Z,101845.00
2022-10-23T08:25:27.905Z,101848.16
2022-10-23T08:27:54.744Z,101860.63
2022-10-23T08:30:21.458Z,101864.53
2022-10-23T08:32:48.152Z,101868.88
2022-10-23T08:35:24.544Z,101858.69
2022-10-23T08:37:54.421Z,101862.19
2022-10-23T08:40:25.368Z,101863.03
2022-10-23T08:43:01.686Z,101864.16
2022-10-23T08:46:00.263Z,101862.78
2022-10-23T08:48:56.354Z,101862.00
2022-10-23T08:51:34.621Z,101852.03
2022-10-23T08:54:22.520Z,101863.50
2022-10-23T08:57:01.520Z,101856.69
2022-10-23T08:59:35.289Z,101854.03
2022-10-23T09:02:30.650Z,101868.31
2022-10-23T09:04:58.799Z,101853.75
2022-10-23T09:07:34.819Z,101845.47
2022-10-23T09:10:28.183Z,101848.44
2022-10-23T09:13:04.482Z,101843.75
2022-10-23T09:16:01.808Z,101847.72
2022-10-23T09:18:31.788Z,101848.25
2022-10-23T09:21:00.868Z,101853.38
2022-10-23T09:23:27.728Z,101852.28
2022-10-23T09:25:59.876Z,101848.28
2022-10-23T09:28:33.297Z,101847.84
2022-10-23T09:31:20.291Z,101833.75
2022-10-23T09:34:10.970Z,101839.28
2022-10-23T09:36:50.584Z,101849.88
2022-10-23T09:39:32.823Z,101842.00
2022-10-23T09:42:14.470Z,101836.06
2022-10-23T09:44:52.948Z,101840.38
2022-10-23T09:47:27.549Z,101842.03
2022-10-23T09:49:57.210Z,101834.16
2022-10-23T09:52:36.210Z,101837.81
2022-10-23T09:55:24.987Z,101840.94
2022-10-23T09:57:55.693Z,101833.69
2022-10-23T10:00:25.363Z,101829.84
2022-10-23T10:03:06.774Z,101835.91
2022-10-23T10:05:38.858Z,101838.75
2022-10-23T10:08:21.069Z,101830.31
2022-10-23T10:11:02.537Z,101834.56
2022-10-23T10:13:45.391Z,101840.69
2022-10-23T10:16:45.587Z,101839.50
2022-10-23T10:19:50.321Z,101836.19
2022-10-23T10:22:32.036Z,101837.28
2022-10-23T10:25:07.346Z,101839.66
2022-10-23T10:28:00.912Z,101839.72
2022-10-23T10:30:40.616Z,101827.47
2022-10-23T10:33:46.574Z,101830.47
2022-10-23T10:36:41.454Z,101841.09
2022-10-23T10:39:42.263Z,101829.38
2022-10-23T10:42:31.126Z,101824.22
2022-10-23T10:45:07.199Z,101824.94
2022-10-23T10:47:43.425Z,101820.84
2022-10-23T10:50:25.913Z,101814.47
2022-10-23T10:53:12.093Z,101820.53
2022-10-23T10:58:40.451Z,101816.91
2022-10-23T11:01:29.202Z,101812.22
2022-10-23T11:04:19.490Z,101807.50
2022-10-23T11:06:51.923Z,101806.38
2022-10-23T11:09:45.634Z,101804.19
2022-10-23T11:12:24.781Z,101800.72
2022-10-23T11:14:52.105Z,101800.94
2022-10-23T11:17:43.351Z,101804.09
2022-10-23T11:20:40.933Z,101796.28
2022-10-23T11:23:48.731Z,101793.22
2022-10-23T11:26:31.045Z,101791.81
2022-10-23T11:29:29.358Z,101782.19
2022-10-23T11:32:09.479Z,101781.84
2022-10-23T11:34:46.259Z,101783.50
2022-10-23T11:37:18.616Z,101777.16
2022-10-23T11:40:14.611Z,101771.97
2022-10-23T11:42:53.165Z,101778.00
2022-10-23T11:45:40.779Z,101775.06
2022-10-23T11:48:30.205Z,101766.31
2022-10-23T11:51:00.326Z,101763.75
2022-10-23T11:53:35.698Z,101762.09
2022-10-23T11:56:26.981Z,101768.69
2022-10-23T11:58:58.146Z,101765.19
2022-10-23T12:01:45.679Z,101756.72
2022-10-23T12:04:14.479Z,101756.13
2022-10-23T12:06:56.421Z,101757.69
2022-10-23T12:09:46.471Z,101751.19
2022-10-23T12:14:51.322Z,101750.19
2022-10-23T12:17:37.301Z,101753.75
2022-10-23T12:20:13.918Z,101747.16
2022-10-23T12:22:53.509Z,101744.94
2022-10-23T12:25:29.158Z,101740.28
2022-10-23T12:28:09.551Z,101737.47
2022-10-23T12:30:51.789Z,101737.72
2022-10-23T12:33:37.759Z,101727.25
2022-10-23T12:36:09.999Z,101740.16
2022-10-23T12:38:44.516Z,101738.59
2022-10-23T12:41:43.255Z,101741.28
2022-10-23T12:44:16.404Z,101736.88
2022-10-23T12:46:47.584Z,101732.34
2022-10-23T12:49:25.137Z,101734.78
2022-10-23T12:52:07.792Z,101729.09
2022-10-23T12:54:42.953Z,101731.31
2022-10-23T12:57:32.889Z,101721.13
2022-10-23T13:00:11.090Z,101719.31
2022-10-23T13:02:39.736Z,101717.97
2022-10-23T13:05:33.247Z,101717.09
2022-10-23T13:08:02.496Z,101713.47
2022-10-23T13:10:33.926Z,101713.56
2022-10-23T13:13:05.528Z,101709.16
2022-10-23T13:15:41.153Z,101715.19
2022-10-23T13:18:09.569Z,101708.03
2022-10-23T13:20:39.159Z,101709.16
2022-10-23T13:23:26.056Z,101699.47
2022-10-23T13:25:57.090Z,101701.78
2022-10-23T13:29:00.565Z,101697.69
2022-10-23T13:31:34.444Z,101697.59
2022-10-23T13:34:06.255Z,101694.59
2022-10-23T13:36:40.564Z,101695.19
2022-10-23T13:41:45.839Z,101695.00
2022-10-23T13:44:23.735Z,101689.47
2022-10-23T13:46:54.410Z,101691.47
2022-10-23T13:49:21.252Z,101687.66
2022-10-23T13:51:53.742Z,101686.44
2022-10-23T13:56:57.959Z,101687.22
2022-10-23T13:59:28.064Z,101686.38
2022-10-23T14:01:57.838Z,101683.88
2022-10-23T14:04:24.616Z,101690.44
2022-10-23T14:06:55.063Z,101687.19
2022-10-23T14:09:21.744Z,101678.56
2022-10-23T14:11:54.081Z,101681.66
2022-10-23T14:14:26.365Z,101687.34
2022-10-23T14:16:54.955Z,101684.72
2022-10-23T14:19:21.845Z,101680.31
2022-10-23T14:21:55.899Z,101679.34
2022-10-23T14:24:28.409Z,101682.81
2022-10-23T14:27:02.606Z,101675.66
2022-10-23T14:29:29.491Z,101681.19
2022-10-23T14:31:56.321Z,101669.56
2022-10-23T14:34:27.093Z,101671.16
2022-10-23T14:37:04.050Z,101675.22
2022-10-23T14:39:34.590Z,101671.28
2022-10-23T14:42:30.533Z,101680.75
2022-10-23T14:45:06.677Z,101683.06
2022-10-23T14:47:33.463Z,101679.09
2022-10-23T14:50:00.363Z,101681.69
2022-10-23T14:52:27.463Z,101680.06
2022-10-23T14:54:54.373Z,101679.97
2022-10-23T14:57:24.220Z,101682.00
2022-10-23T14:59:52.758Z,101682.63
2022-10-23T15:02:20.873Z,101691.38
2022-10-23T15:04:48.514Z,101686.63
2022-10-23T15:07:16.346Z,101683.69
2022-10-23T15:09:43.094Z,101680.75
2022-10-23T15:12:09.820Z,101678.16
2022-10-23T15:14:36.549Z,101682.00
2022-10-23T15:17:06.208Z,101673.22
2022-10-23T15:19:36.086Z,101676.31
2022-10-23T15:22:03.028Z,101673.28
2022-10-23T15:24:30.489Z,101676.25
2022-10-23T15:26:57.372Z,101678.09
2022-10-23T15:31:57.761Z,101673.56
2022-10-23T15:34:27.733Z,101676.25
2022-10-23T15:37:01.188Z,101673.00
2022-10-23T15:39:38.144Z,101671.28
2022-10-23T15:42:06.694Z,101667.13
2022-10-23T15:44:35.795Z,101671.72
2022-10-23T15:47:02.901Z,101668.44
2022-10-23T15:49:33.398Z,101670.78
2022-10-23T15:52:04.995Z,101675.25
2022-10-23T15:54:32.983Z,101673.81
2022-10-23T15:57:05.485Z,101673.88
2022-10-23T15:59:32.848Z,101666.19
2022-10-23T16:02:02.980Z,101674.28
2022-10-23T16:04:30.924Z,101674.56
2022-10-23T16:07:00.770Z,101673.84
2022-10-23T16:09:30.219Z,101676.59
2022-10-23T16:11:57.172Z,101686.28
2022-10-23T16:14:30.234Z,101687.25
2022-10-23T16:17:00.225Z,101686.28
2022-10-23T16:19:27.717Z,101689.91
2022-10-23T16:21:54.761Z,101689.47
2022-10-23T16:24:27.828Z,101692.13
2022-10-23T16:27:02.957Z,101687.13
2022-10-23T16:29:31.542Z,101695.47
2022-10-23T16:32:03.503Z,101695.63
2022-10-23T16:34:34.039Z,101696.00
2022-10-23T16:37:02.432Z,101706.16
2022-10-23T16:39:32.090Z,101707.34
2022-10-23T16:42:01.765Z,101712.88
2022-10-23T16:44:29.448Z,101712.31
2022-10-23T16:47:02.325Z,101709.41
2022-10-23T16:49:31.052Z,101709.50
2022-10-23T16:51:58.461Z,101704.59
2022-10-23T16:54:25.305Z,101713.34
2022-10-23T16:56:52.224Z,101718.91
2022-10-23T16:59:19.025Z,101723.63
2022-10-23T17:01:53.093Z,101721.75
2022-10-23T17:04:20.476Z,101724.78
2022-10-23T17:06:47.249Z,101731.72
2022-10-23T17:09:14.110Z,101725.88
2022-10-23T17:11:44.174Z,101726.91
2022-10-23T17:14:19.933Z,101732.88
2022-10-23T17:16:51.676Z,101733.25
2022-10-23T17:22:12.061Z,101732.00
2022-10-23T17:24:41.198Z,101739.00
2022-10-23T17:27:08.558Z,101735.63
2022-10-23T17:29:44.721Z,101743.69
2022-10-23T17:32:14.632Z,101752.50
2022-10-23T17:34:46.259Z,101753.00
2022-10-23T17:37:16.234Z,101751.47
2022-10-23T17:39:43.258Z,101754.84
2022-10-23T17:42:10.120Z,101757.63
2022-10-23T17:44:37.002Z,101756.47
2022-10-23T17:47:06.708Z,101743.59
2022-10-23T17:49:33.567Z,101745.97
2022-10-23T17:52:09.204Z,101743.75
2022-10-23T17:54:36.148Z,101741.16
2022-10-23T17:57:08.745Z,101744.56
2022-10-23T17:59:35.542Z,101744.00
2022-10-23T18:02:02.633Z,101747.97
2022-10-23T18:04:31.139Z,101758.69
2022-10-23T18:06:57.784Z,101753.72
2022-10-23T18:09:24.506Z,101752.56
2022-10-23T18:11:51.848Z,101745.44
2022-10-23T18:14:20.324Z,101751.84
2022-10-23T18:16:47.773Z,101752.56
2022-10-23T18:19:19.522Z,101750.31
2022-10-23T18:21:47.794Z,101752.13
2022-10-23T18:24:15.455Z,101746.88
2022-10-23T18:26:42.888Z,101743.59
2022-10-23T18:29:14.723Z,101745.22
2022-10-23T18:31:44.483Z,101748.88
2022-10-23T18:34:21.685Z,101735.88
2022-10-23T18:36:50.167Z,101745.22
2022-10-23T18:39:19.445Z,101741.94
2022-10-23T18:41:46.469Z,101743.81
2022-10-23T18:44:17.624Z,101751.03
2022-10-23T18:46:46.045Z,101752.91
2022-10-23T18:49:13.097Z,101754.94
2022-10-23T18:51:40.454Z,101742.03
2022-10-23T18:54:12.244Z,101743.53
2022-10-23T18:56:41.161Z,101735.88
2022-10-23T18:59:12.245Z,101738.13
2022-10-23T19:01:42.373Z,101737.34
2022-10-23T19:04:12.648Z,101741.53
2022-10-23T19:06:39.936Z,101742.59
2022-10-23T19:09:08.365Z,101737.97
2022-10-23T19:11:35.341Z,101729.81
2022-10-23T19:14:03.118Z,101735.53
2022-10-23T19:16:49.728Z,101729.38
2022-10-23T19:19:30.666Z,101742.69
2022-10-23T19:21:57.721Z,101734.16
2022-10-23T19:24:38.516Z,101738.69
2022-10-23T19:27:09.341Z,101740.34
2022-10-23T19:29:45.203Z,101751.69
2022-10-23T19:32:15.113Z,101757.31
2022-10-23T19:34:44.562Z,101745.53
2022-10-23T19:37:11.558Z,101742.31
2022-10-23T19:39:41.430Z,101744.97
2022-10-23T19:42:11.542Z,101746.53
2022-10-23T19:44:39.003Z,101752.00
2022-10-23T19:47:09.186Z,101745.91
2022-10-23T19:49:44.440Z,101745.81
2022-10-23T19:52:18.077Z,101754.84
2022-10-23T19:54:45.865Z,101737.38
2022-10-23T19:57:17.046Z,101739.38
2022-10-23T19:59:53.465Z,101741.63
2022-10-23T20:02:21.397Z,101725.63
2022-10-23T20:04:48.856Z,101731.69
2022-10-23T20:07:17.608Z,101730.81
2022-10-23T20:09:44.844Z,101735.13
2022-10-23T20:12:14.600Z,101736.38
2022-10-23T20:14:44.269Z,101741.09
2022-10-23T20:17:13.342Z,101749.53
2022-10-23T20:19:40.795Z,101738.44
2022-10-23T20:22:14.761Z,101753.66
2022-10-23T20:24:45.351Z,101739.47
2022-10-23T20:27:15.843Z,101740.09
2022-10-23T20:29:48.371Z,101738.81
2022-10-23T20:32:17.271Z,101732.97
2022-10-23T20:34:46.142Z,101728.13
2022-10-23T20:37:22.048Z,101740.66
2022-10-23T20:40:02.347Z,101750.59
2022-10-23T20:42:29.924Z,101747.97
2022-10-23T20:45:03.718Z,101739.72
2022-10-23T20:47:33.019Z,101750.50
2022-10-23T20:50:00.347Z,101751.47
2022-10-23T20:52:30.350Z,101756.78
2022-10-23T20:55:01.948Z,101754.59
2022-10-23T20:57:34.805Z,101749.06
2022-10-23T21:00:15.442Z,101759.78
2022-10-23T21:02:52.134Z,101758.38
2022-10-23T21:05:28.024Z,101760.72
2022-10-23T21:07:58.989Z,101760.72
2022-10-23T21:10:39.709Z,101762.34
2022-10-23T21:13:06.578Z,101763.38
2022-10-23T21:15:34.778Z,101771.13
2022-10-23T21:18:13.191Z,101759.78
2022-10-23T21:21:01.230Z,101760.97
2022-10-23T21:23:29.724Z,101758.59
2022-10-23T21:26:06.344Z,101752.81
2022-10-23T21:28:44.272Z,101752.31
2022-10-23T21:31:20.885Z,101744.31
2022-10-23T21:33:51.292Z,101751.53
2022-10-23T21:36:20.584Z,101746.00
2022-10-23T21:39:00.268Z,101743.84
2022-10-23T21:41:34.611Z,101733.78
2022-10-23T21:44:07.194Z,101739.38
2022-10-23T21:46:37.355Z,101742.44
2022-10-23T21:49:14.172Z,101741.38
2022-10-23T21:51:47.532Z,101739.09
2022-10-23T21:54:16.504Z,101741.50
2022-10-23T21:56:54.176Z,101755.25
2022-10-23T21:59:30.325Z,101749.78
2022-10-23T22:02:07.124Z,101744.44
2022-10-23T22:04:35.134Z,101747.13
2022-10-23T22:07:10.967Z,101748.06
2022-10-23T22:09:37.711Z,101732.72
2022-10-23T22:12:04.532Z,101734.00
2022-10-23T22:14:31.298Z,101730.97
2022-10-23T22:16:58.671Z,101734.50
2022-10-23T22:19:26.416Z,101734.31
2022-10-23T22:21:53.232Z,101727.78
2022-10-23T22:24:23.475Z,101732.06
2022-10-23T22:26:53.835Z,101739.25
2022-10-23T22:29:31.537Z,101734.00
2022-10-23T22:32:03.289Z,101737.38
2022-10-23T22:34:53.674Z,101740.06
2022-10-23T22:37:25.508Z,101739.66
2022-10-23T22:39:52.862Z,101743.00
2022-10-23T22:42:22.577Z,101748.53
2022-10-23T22:44:49.436Z,101743.41
2022-10-23T22:47:16.267Z,101742.25
2022-10-23T22:49:47.622Z,101742.19
2022-10-23T22:52:17.306Z,101725.09
2022-10-23T22:54:50.661Z,101726.84
2022-10-23T22:57:17.697Z,101737.25
2022-10-23T22:59:44.513Z,101748.91
2022-10-23T23:02:11.276Z,101751.91
2022-10-23T23:04:39.238Z,101758.91
2022-10-23T23:07:08.478Z,101764.06
2022-10-23T23:09:43.823Z,101764.44
2022-10-23T23:12:18.179Z,101757.00
2022-10-23T23:14:45.073Z,101742.72
2022-10-23T23:17:13.267Z,101735.47
2022-10-23T23:19:40.214Z,101732.50
2022-10-23T23:22:09.727Z,101733.78
2022-10-23T23:24:36.698Z,101729.81
2022-10-23T23:27:06.579Z,101731.59
2022-10-23T23:29:36.155Z,101739.97
2022-10-23T23:32:09.799Z,101741.06
2022-10-23T23:34:36.658Z,101740.28
2022-10-23T23:37:03.428Z,101737.25
2022-10-23T23:39:30.187Z,101726.25
2022-10-23T23:42:02.707Z,101720.56
2022-10-23T23:44:31.075Z,101735.44
2022-10-23T23:47:06.406Z,101736.94
2022-10-23T23:49:33.316Z,101740.69
2022-10-23T23:52:03.889Z,101746.63
2022-10-23T23:54:30.710Z,101726.97
2022-10-23T23:57:00.004Z,101727.22
2022-10-23T23:59:26.843Z,101717.13
